Time,TemperatureF,DewpointF,PressureIn,WindDirection,WindDirectionDegrees,WindSpeedMPH,WindSpeedGustMPH,Humidity,HourlyPrecipIn,Conditions,Clouds,dailyrainin,SoftwareType,DateUTC
2013-01-12 00:00:00,36.9,30.4,29.63,NW,309,0.0,0.0,77,0.00,,,0.00,Wunderground v.1.15,2013-01-12 06:00:00,
2013-01-12 00:10:00,36.5,30.3,29.65,WNW,299,0.0,0.0,78,0.00,,,0.00,Wunderground v.1.15,2013-01-12 06:10:00,
2013-01-12 00:15:00,36.0,29.8,29.65,West,280,0.0,0.0,78,0.00,,,0.00,Wunderground v.1.15,2013-01-12 06:15:00,
2013-01-12 00:25:00,35.6,29.4,29.66,NW,308,0.0,0.0,78,0.00,,,0.00,Wunderground v.1.15,2013-01-12 06:25:00,
2013-01-12 00:35:00,35.2,29.0,29.68,WNW,299,0.0,0.0,78,0.00,,,0.00,Wunderground v.1.15,2013-01-12 06:35:00,
2013-01-12 00:40:00,35.0,29.1,29.68,NW,309,0.0,0.0,79,0.00,,,0.00,Wunderground v.1.15,2013-01-12 06:40:00,
2013-01-12 00:50:00,34.0,27.5,29.71,West,280,0.0,0.0,77,0.00,,,0.00,Wunderground v.1.15,2013-01-12 06:50:00,
2013-01-12 01:00:00,33.4,27.0,29.71,West,274,0.0,0.0,77,0.00,,,0.00,Wunderground v.1.15,2013-01-12 07:00:00,
2013-01-12 01:10:00,32.8,26.4,29.73,WNW,296,0.0,0.0,77,0.00,,,0.00,Wunderground v.1.15,2013-01-12 07:10:00,
2013-01-12 01:20:00,32.1,25.7,29.73,WNW,302,0.0,0.0,77,0.00,,,0.00,Wunderground v.1.15,2013-01-12 07:20:00,
2013-01-12 01:30:00,31.9,25.2,29.73,WNW,298,0.0,0.0,76,0.00,,,0.00,Wunderground v.1.15,2013-01-12 07:30:00,
2013-01-12 01:40:00,30.9,23.9,29.76,West,272,0.0,0.0,75,0.00,,,0.00,Wunderground v.1.15,2013-01-12 07:40:00,
2013-01-12 01:45:00,30.7,23.7,29.76,WNW,298,0.0,0.0,75,0.00,,,0.00,Wunderground v.1.15,2013-01-12 07:45:00,
2013-01-12 01:55:00,30.3,23.0,29.78,WNW,287,0.0,0.0,74,0.00,,,0.00,Wunderground v.1.15,2013-01-12 07:55:00,
2013-01-12 02:05:00,29.8,22.5,29.80,WNW,288,0.0,0.0,74,0.00,,,0.00,Wunderground v.1.15,2013-01-12 08:05:00,
2013-01-12 02:15:00,29.5,21.9,29.80,WNW,289,0.0,0.0,73,0.00,,,0.00,Wunderground v.1.15,2013-01-12 08:15:00,
2013-01-12 02:25:00,29.3,22.0,29.82,WNW,298,0.0,0.0,74,0.00,,,0.00,Wunderground v.1.15,2013-01-12 08:25:00,
2013-01-12 02:35:00,29.1,21.8,29.83,NW,322,0.0,0.0,74,0.00,,,0.00,Wunderground v.1.15,2013-01-12 08:35:00,
2013-01-12 02:45:00,29.1,21.8,29.83,NW,305,0.0,0.0,74,0.00,,,0.00,Wunderground v.1.15,2013-01-12 08:45:00,
2013-01-12 02:50:00,29.1,21.8,29.83,NW,305,0.0,0.0,74,0.00,,,0.00,Wunderground v.1.15,2013-01-12 08:50:00,
2013-01-12 03:00:00,29.3,22.0,29.83,NW,323,0.0,0.0,74,0.00,,,0.00,Wunderground v.1.15,2013-01-12 09:00:00,
2013-01-12 03:05:00,29.3,22.0,29.83,NW,323,0.0,0.0,74,0.00,,,0.00,Wunderground v.1.15,2013-01-12 09:05:00,
2013-01-12 03:15:00,29.3,22.4,29.83,NW,308,0.0,0.0,75,0.00,,,0.00,Wunderground v.1.15,2013-01-12 09:15:00,
2013-01-12 03:25:00,29.4,22.5,29.84,WNW,301,0.0,0.0,75,0.00,,,0.00,Wunderground v.1.15,2013-01-12 09:25:00,
2013-01-12 03:30:00,29.4,22.5,29.84,NW,304,0.0,0.0,75,0.00,,,0.00,Wunderground v.1.15,2013-01-12 09:30:00,
2013-01-12 03:40:00,29.0,21.4,29.86,WNW,299,0.0,0.0,73,0.00,,,0.00,Wunderground v.1.15,2013-01-12 09:40:00,
2013-01-12 03:50:00,28.1,20.2,29.86,WNW,301,0.0,0.0,72,0.00,,,0.00,Wunderground v.1.15,2013-01-12 09:50:00,
2013-01-12 04:00:00,27.2,19.4,29.86,WNW,302,0.0,0.0,72,0.00,,,0.00,Wunderground v.1.15,2013-01-12 10:00:00,
2013-01-12 04:10:00,26.7,18.6,29.88,WNW,296,0.0,0.0,71,0.00,,,0.00,Wunderground v.1.15,2013-01-12 10:10:00,
2013-01-12 04:20:00,26.3,18.2,29.88,West,280,0.0,0.0,71,0.00,,,0.00,Wunderground v.1.15,2013-01-12 10:20:00,
2013-01-12 04:30:00,26.1,17.3,29.88,WNW,299,0.0,0.0,69,0.00,,,0.00,Wunderground v.1.15,2013-01-12 10:30:00,
2013-01-12 04:40:00,25.8,17.4,29.89,NW,313,0.0,0.0,70,0.00,,,0.00,Wunderground v.1.15,2013-01-12 10:40:00,
2013-01-12 04:45:00,25.6,17.2,29.89,WNW,292,0.0,0.0,70,0.00,,,0.00,Wunderground v.1.15,2013-01-12 10:45:00,
2013-01-12 04:55:00,25.4,17.0,29.89,NW,315,0.0,0.0,70,0.00,,,0.00,Wunderground v.1.15,2013-01-12 10:55:00,
2013-01-12 05:05:00,25.3,16.9,29.91,WNW,296,0.0,0.0,70,0.00,,,0.00,Wunderground v.1.15,2013-01-12 11:05:00,
2013-01-12 05:15:00,25.0,16.6,29.91,NW,308,0.0,0.0,70,0.00,,,0.00,Wunderground v.1.15,2013-01-12 11:15:00,
2013-01-12 05:25:00,24.7,16.6,29.90,WNW,291,0.0,0.0,71,0.00,,,0.00,Wunderground v.1.15,2013-01-12 11:25:00,
2013-01-12 05:35:00,24.5,16.4,29.91,WNW,295,0.0,0.0,71,0.00,,,0.00,Wunderground v.1.15,2013-01-12 11:35:00,
2013-01-12 05:40:00,24.4,16.0,29.91,WNW,302,0.0,0.0,70,0.00,,,0.00,Wunderground v.1.15,2013-01-12 11:40:00,
2013-01-12 05:50:00,24.2,15.8,29.91,NW,306,0.0,0.0,70,0.00,,,0.00,Wunderground v.1.15,2013-01-12 11:50:00,
2013-01-12 06:00:00,24.1,15.4,29.91,WNW,301,0.0,0.0,69,0.00,,,0.00,Wunderground v.1.15,2013-01-12 12:00:00,
2013-01-12 06:10:00,24.1,15.1,29.91,NNW,330,0.0,0.0,68,0.00,,,0.00,Wunderground v.1.15,2013-01-12 12:10:00,
2013-01-12 06:20:00,23.8,14.8,29.92,NW,308,0.0,0.0,68,0.00,,,0.00,Wunderground v.1.15,2013-01-12 12:20:00,
2013-01-12 06:30:00,23.5,14.1,29.92,NW,305,0.0,0.0,67,0.00,,,0.00,Wunderground v.1.15,2013-01-12 12:30:00,
2013-01-12 06:35:00,23.5,14.1,29.93,NW,304,0.0,0.0,67,0.00,,,0.00,Wunderground v.1.15,2013-01-12 12:35:00,
2013-01-12 06:45:00,23.3,13.6,29.93,NW,306,0.0,0.0,66,0.00,,,0.00,Wunderground v.1.15,2013-01-12 12:45:00,
2013-01-12 06:55:00,23.3,13.3,29.93,NW,320,0.0,0.0,65,0.00,,,0.00,Wunderground v.1.15,2013-01-12 12:55:00,
2013-01-12 07:05:00,23.5,13.5,29.93,NW,316,0.0,0.0,65,0.00,,,0.00,Wunderground v.1.15,2013-01-12 13:05:00,
2013-01-12 07:15:00,23.3,13.6,29.93,NNW,332,0.0,0.0,66,0.00,,,0.00,Wunderground v.1.15,2013-01-12 13:15:00,
2013-01-12 07:25:00,23.2,13.5,29.93,NW,325,0.0,0.0,66,0.00,,,0.00,Wunderground v.1.15,2013-01-12 13:25:00,
2013-01-12 07:30:00,23.2,13.5,29.93,NW,323,0.0,0.0,66,0.00,,,0.00,Wunderground v.1.15,2013-01-12 13:30:00,
2013-01-12 07:40:00,23.0,13.7,29.95,NW,313,0.0,0.0,67,0.00,,,0.00,Wunderground v.1.15,2013-01-12 13:40:00,
2013-01-12 07:50:00,22.9,13.6,29.96,NW,323,0.0,0.0,67,0.00,,,0.00,Wunderground v.1.15,2013-01-12 13:50:00,
2013-01-12 08:00:00,22.9,13.9,29.96,NW,322,0.0,0.0,68,0.00,,,0.00,Wunderground v.1.15,2013-01-12 14:00:00,
2013-01-12 08:10:00,22.9,13.9,29.96,NW,312,0.0,0.0,68,0.00,,,0.00,Wunderground v.1.15,2013-01-12 14:10:00,
2013-01-12 08:20:00,23.0,14.3,29.98,NW,316,0.0,0.0,69,0.00,,,0.00,Wunderground v.1.15,2013-01-12 14:20:00,
2013-01-12 08:30:00,23.2,14.2,29.98,NW,325,0.0,0.0,68,0.00,,,0.00,Wunderground v.1.15,2013-01-12 14:30:00,
2013-01-12 08:40:00,23.5,14.5,29.97,NW,305,0.0,0.0,68,0.00,,,0.00,Wunderground v.1.15,2013-01-12 14:40:00,
2013-01-12 08:50:00,23.6,14.2,29.98,NW,308,0.0,0.0,67,0.00,,,0.00,Wunderground v.1.15,2013-01-12 14:50:00,
2013-01-12 09:00:00,23.9,14.5,29.98,NW,320,0.0,0.0,67,0.00,,,0.00,Wunderground v.1.15,2013-01-12 15:00:00,
2013-01-12 09:10:00,24.1,15.1,29.98,WNW,301,0.0,0.0,68,0.00,,,0.00,Wunderground v.1.15,2013-01-12 15:10:00,
2013-01-12 09:15:00,24.1,14.7,29.98,NW,306,0.0,0.0,67,0.00,,,0.00,Wunderground v.1.15,2013-01-12 15:15:00,
2013-01-12 09:25:00,24.1,15.1,30.00,NNW,328,0.0,0.0,68,0.00,,,0.00,Wunderground v.1.15,2013-01-12 15:25:00,
2013-01-12 09:35:00,24.1,15.1,29.99,WNW,299,0.0,0.0,68,0.00,,,0.00,Wunderground v.1.15,2013-01-12 15:35:00,
2013-01-12 09:45:00,23.9,14.5,29.99,WNW,301,0.0,0.0,67,0.00,,,0.00,Wunderground v.1.15,2013-01-12 15:45:00,
2013-01-12 09:55:00,23.9,14.5,29.99,NNW,329,0.0,0.0,67,0.00,,,0.00,Wunderground v.1.15,2013-01-12 15:55:00,
2013-01-12 10:05:00,24.4,15.3,30.00,NNW,336,0.0,0.0,68,0.00,,,0.00,Wunderground v.1.15,2013-01-12 16:05:00,
2013-01-12 10:10:00,24.2,13.8,30.00,NNW,329,0.0,0.0,64,0.00,,,0.00,Wunderground v.1.15,2013-01-12 16:10:00,
2013-01-12 10:20:00,24.2,13.8,30.01,NNW,343,0.0,0.0,64,0.00,,,0.00,Wunderground v.1.15,2013-01-12 16:20:00,
2013-01-12 10:30:00,24.4,13.2,30.01,NW,320,0.0,0.0,62,0.00,,,0.00,Wunderground v.1.15,2013-01-12 16:30:00,
2013-01-12 10:40:00,24.4,12.9,30.01,NW,315,0.0,0.0,61,0.00,,,0.00,Wunderground v.1.15,2013-01-12 16:40:00,
2013-01-12 10:50:00,24.4,12.1,30.01,NNW,337,0.0,0.0,59,0.00,,,0.00,Wunderground v.1.15,2013-01-12 16:50:00,
2013-01-12 11:00:00,24.4,11.7,30.01,NNW,332,0.0,0.0,58,0.00,,,0.00,Wunderground v.1.15,2013-01-12 17:00:00,
2013-01-12 11:05:00,24.5,11.8,30.01,NW,316,0.0,0.0,58,0.00,,,0.00,Wunderground v.1.15,2013-01-12 17:05:00,
2013-01-12 11:15:00,24.5,11.8,30.01,NW,315,0.0,0.0,58,0.00,,,0.00,Wunderground v.1.15,2013-01-12 17:15:00,
2013-01-12 11:25:00,24.8,12.1,30.02,NW,325,0.0,0.0,58,0.00,,,0.00,Wunderground v.1.15,2013-01-12 17:25:00,
2013-01-12 11:35:00,24.5,11.4,30.02,NNW,343,0.0,0.0,57,0.00,,,0.00,Wunderground v.1.15,2013-01-12 17:35:00,
2013-01-12 11:45:00,24.4,10.5,30.02,NNW,332,0.0,0.0,55,0.00,,,0.00,Wunderground v.1.15,2013-01-12 17:45:00,
2013-01-12 11:55:00,24.2,10.7,30.01,NNW,333,0.0,0.0,56,0.00,,,0.00,Wunderground v.1.15,2013-01-12 17:55:00,
2013-01-12 12:00:00,24.1,11.0,30.01,NW,325,0.0,0.0,57,0.00,,,0.00,Wunderground v.1.15,2013-01-12 18:00:00,
2013-01-12 12:10:00,24.2,11.5,29.99,NW,316,0.0,0.0,58,0.00,,,0.00,Wunderground v.1.15,2013-01-12 18:10:00,
2013-01-12 12:20:00,23.8,10.8,29.99,NNW,328,0.0,0.0,57,0.00,,,0.00,Wunderground v.1.15,2013-01-12 18:20:00,
2013-01-12 12:30:00,23.3,10.3,29.99,NW,316,0.0,0.0,57,0.00,,,0.00,Wunderground v.1.15,2013-01-12 18:30:00,
2013-01-12 12:40:00,23.2,10.2,29.99,NNW,335,0.0,0.0,57,0.00,,,0.00,Wunderground v.1.15,2013-01-12 18:40:00,
2013-01-12 12:45:00,23.2,9.8,29.99,NNW,343,0.0,0.0,56,0.00,,,0.00,Wunderground v.1.15,2013-01-12 18:45:00,
2013-01-12 12:55:00,23.2,9.0,29.99,NNW,337,0.0,0.0,54,0.00,,,0.00,Wunderground v.1.15,2013-01-12 18:55:00,
2013-01-12 13:05:00,23.3,9.1,29.99,NW,326,0.0,0.0,54,0.00,,,0.00,Wunderground v.1.15,2013-01-12 19:05:00,
2013-01-12 13:15:00,23.3,9.5,29.99,NNW,342,0.0,0.0,55,0.00,,,0.00,Wunderground v.1.15,2013-01-12 19:15:00,
2013-01-12 13:25:00,23.2,9.4,29.99,NNW,335,0.0,0.0,55,0.00,,,0.00,Wunderground v.1.15,2013-01-12 19:25:00,
2013-01-12 13:35:00,23.2,9.8,29.98,NW,326,0.0,0.0,56,0.00,,,0.00,Wunderground v.1.15,2013-01-12 19:35:00,
2013-01-12 13:45:00,23.3,9.9,29.98,NW,316,0.0,0.0,56,0.00,,,0.00,Wunderground v.1.15,2013-01-12 19:45:00,
2013-01-12 13:50:00,23.2,9.4,29.99,NW,312,0.0,0.0,55,0.00,,,0.00,Wunderground v.1.15,2013-01-12 19:50:00,
2013-01-12 14:00:00,23.0,8.8,29.99,NW,316,0.0,0.0,54,0.00,,,0.00,Wunderground v.1.15,2013-01-12 20:00:00,
2013-01-12 14:10:00,23.0,9.2,30.01,NW,319,0.0,0.0,55,0.00,,,0.00,Wunderground v.1.15,2013-01-12 20:10:00,
2013-01-12 14:20:00,23.2,9.0,30.00,North,349,0.0,0.0,54,0.00,,,0.00,Wunderground v.1.15,2013-01-12 20:20:00,
2013-01-12 14:30:00,23.2,8.6,30.00,North,0,0.0,0.0,53,0.00,,,0.00,Wunderground v.1.15,2013-01-12 20:30:00,
2013-01-12 14:40:00,23.2,8.6,30.00,NW,320,0.0,0.0,53,0.00,,,0.00,Wunderground v.1.15,2013-01-12 20:40:00,
2013-01-12 14:45:00,23.2,9.0,30.00,North,353,0.0,0.0,54,0.00,,,0.00,Wunderground v.1.15,2013-01-12 20:45:00,
2013-01-12 14:55:00,23.5,9.3,29.98,North,10,0.0,0.0,54,0.00,,,0.00,Wunderground v.1.15,2013-01-12 20:55:00,
2013-01-12 15:05:00,23.5,8.9,29.98,North,6,0.0,0.0,53,0.00,,,0.00,Wunderground v.1.15,2013-01-12 21:05:00,
2013-01-12 15:15:00,23.5,8.9,29.98,North,1,0.0,0.0,53,0.00,,,0.00,Wunderground v.1.15,2013-01-12 21:15:00,
2013-01-12 15:25:00,23.9,9.6,29.99,North,1,0.0,0.0,54,0.00,,,0.00,Wunderground v.1.15,2013-01-12 21:25:00,
2013-01-12 15:30:00,23.9,9.2,29.99,North,10,0.0,0.0,53,0.00,,,0.00,Wunderground v.1.15,2013-01-12 21:30:00,
2013-01-12 15:40:00,23.8,9.1,29.99,North,1,0.0,0.0,53,0.00,,,0.00,Wunderground v.1.15,2013-01-12 21:40:00,
2013-01-12 15:50:00,24.1,9.4,30.00,North,1,0.0,0.0,53,0.00,,,0.00,Wunderground v.1.15,2013-01-12 21:50:00,
2013-01-12 16:00:00,24.2,10.3,30.00,North,0,0.0,0.0,55,0.00,,,0.00,Wunderground v.1.15,2013-01-12 22:00:00,
2013-01-12 16:10:00,24.4,10.5,29.99,NNW,337,0.0,0.0,55,0.00,,,0.00,Wunderground v.1.15,2013-01-12 22:10:00,
2013-01-12 16:20:00,24.4,10.5,29.99,North,0,0.0,0.0,55,0.00,,,0.00,Wunderground v.1.15,2013-01-12 22:20:00,
2013-01-12 16:25:00,24.4,10.5,29.99,NNE,16,0.0,0.0,55,0.00,,,0.00,Wunderground v.1.15,2013-01-12 22:25:00,
2013-01-12 16:35:00,24.5,10.6,30.01,North,352,0.0,0.0,55,0.00,,,0.00,Wunderground v.1.15,2013-01-12 22:35:00,
2013-01-12 16:45:00,24.2,9.9,30.01,NNW,344,0.0,0.0,54,0.00,,,0.00,Wunderground v.1.15,2013-01-12 22:45:00,
2013-01-12 16:55:00,24.1,9.8,30.01,NNE,17,0.0,0.0,54,0.00,,,0.00,Wunderground v.1.15,2013-01-12 22:55:00,
2013-01-12 17:05:00,23.9,10.1,30.02,NW,316,0.0,0.0,55,0.00,,,0.00,Wunderground v.1.15,2013-01-12 23:05:00,
2013-01-12 17:15:00,23.9,10.1,30.02,NNW,337,0.0,0.0,55,0.00,,,0.00,Wunderground v.1.15,2013-01-12 23:15:00,
2013-01-12 17:25:00,23.8,10.0,30.03,NW,322,0.0,0.0,55,0.00,,,0.00,Wunderground v.1.15,2013-01-12 23:25:00,
2013-01-12 17:35:00,23.6,9.8,30.03,North,356,0.0,0.0,55,0.00,,,0.00,Wunderground v.1.15,2013-01-12 23:35:00,
2013-01-12 17:40:00,23.6,9.8,30.03,North,0,0.0,0.0,55,0.00,,,0.00,Wunderground v.1.15,2013-01-12 23:40:00,
2013-01-12 17:50:00,23.6,9.8,30.06,NNW,344,0.0,0.0,55,0.00,,,0.00,Wunderground v.1.15,2013-01-12 23:50:00,
2013-01-12 18:00:00,23.5,9.7,30.06,NW,323,0.0,0.0,55,0.00,,,0.00,Wunderground v.1.15,2013-01-13 00:00:00,
2013-01-12 18:10:00,23.5,9.7,30.05,NW,312,0.0,0.0,55,0.00,,,0.00,Wunderground v.1.15,2013-01-13 00:10:00,
2013-01-12 18:20:00,23.5,10.1,30.04,North,0,0.0,0.0,56,0.00,,,0.00,Wunderground v.1.15,2013-01-13 00:20:00,
2013-01-12 18:30:00,23.3,9.9,30.04,North,356,0.0,0.0,56,0.00,,,0.00,Wunderground v.1.15,2013-01-13 00:30:00,
2013-01-12 18:40:00,23.2,9.8,30.02,North,0,0.0,0.0,56,0.00,,,0.00,Wunderground v.1.15,2013-01-13 00:40:00,
2013-01-12 18:50:00,22.9,9.9,30.03,NW,320,0.0,0.0,57,0.00,,,0.00,Wunderground v.1.15,2013-01-13 00:50:00,
2013-01-12 19:00:00,22.7,9.7,30.03,North,350,0.0,0.0,57,0.00,,,0.00,Wunderground v.1.15,2013-01-13 01:00:00,
2013-01-12 19:10:00,22.5,9.9,30.02,North,356,0.0,0.0,58,0.00,,,0.00,Wunderground v.1.15,2013-01-13 01:10:00,
2013-01-12 19:15:00,22.4,9.8,30.02,North,359,0.0,0.0,58,0.00,,,0.00,Wunderground v.1.15,2013-01-13 01:15:00,
2013-01-12 19:25:00,22.1,9.6,30.03,North,357,0.0,0.0,58,0.00,,,0.00,Wunderground v.1.15,2013-01-13 01:25:00,
2013-01-12 19:35:00,21.9,9.4,30.05,NNW,339,0.0,0.0,58,0.00,,,0.00,Wunderground v.1.15,2013-01-13 01:35:00,
2013-01-12 19:45:00,21.9,9.4,30.05,NNW,346,0.0,0.0,58,0.00,,,0.00,Wunderground v.1.15,2013-01-13 01:45:00,
2013-01-12 19:55:00,21.8,9.7,30.04,NNW,336,0.0,0.0,59,0.00,,,0.00,Wunderground v.1.15,2013-01-13 01:55:00,
2013-01-12 20:00:00,21.6,9.1,30.04,NNW,347,0.0,0.0,58,0.00,,,0.00,Wunderground v.1.15,2013-01-13 02:00:00,
2013-01-12 20:10:00,21.6,9.5,30.02,North,0,0.0,0.0,59,0.00,,,0.00,Wunderground v.1.15,2013-01-13 02:10:00,
2013-01-12 20:20:00,21.4,9.3,30.04,NW,319,0.0,0.0,59,0.00,,,0.00,Wunderground v.1.15,2013-01-13 02:20:00,
2013-01-12 20:30:00,21.3,9.2,30.04,NW,325,0.0,0.0,59,0.00,,,0.00,Wunderground v.1.15,2013-01-13 02:30:00,
2013-01-12 20:40:00,21.1,9.4,30.04,North,0,0.0,0.0,60,0.00,,,0.00,Wunderground v.1.15,2013-01-13 02:40:00,
2013-01-12 20:50:00,21.0,9.3,30.03,NNW,342,0.0,0.0,60,0.00,,,0.00,Wunderground v.1.15,2013-01-13 02:50:00,
2013-01-12 21:00:00,20.6,8.9,30.03,NW,320,0.0,0.0,60,0.00,,,0.00,Wunderground v.1.15,2013-01-13 03:00:00,
2013-01-12 21:10:00,20.6,8.9,30.04,NW,318,0.0,0.0,60,0.00,,,0.00,Wunderground v.1.15,2013-01-13 03:10:00,
2013-01-12 21:20:00,20.3,8.6,30.04,NW,318,0.0,0.0,60,0.00,,,0.00,Wunderground v.1.15,2013-01-13 03:20:00,
2013-01-12 21:30:00,20.0,8.7,30.04,NW,325,0.0,0.0,61,0.00,,,0.00,Wunderground v.1.15,2013-01-13 03:30:00,
2013-01-12 21:40:00,19.5,8.2,30.04,NW,313,0.0,0.0,61,0.00,,,0.00,Wunderground v.1.15,2013-01-13 03:40:00,
2013-01-12 21:45:00,19.4,8.1,30.04,NW,318,0.0,0.0,61,0.00,,,0.00,Wunderground v.1.15,2013-01-13 03:45:00,
2013-01-12 21:55:00,19.1,7.8,30.04,NW,326,0.0,0.0,61,0.00,,,0.00,Wunderground v.1.15,2013-01-13 03:55:00,
2013-01-12 22:05:00,18.8,7.6,30.03,NNW,335,0.0,0.0,61,0.00,,,0.00,Wunderground v.1.15,2013-01-13 04:05:00,
2013-01-12 22:15:00,18.4,7.5,30.03,NW,325,0.0,0.0,62,0.00,,,0.00,Wunderground v.1.15,2013-01-13 04:15:00,
2013-01-12 22:25:00,18.1,7.3,30.04,NW,319,0.0,0.0,62,0.00,,,0.00,Wunderground v.1.15,2013-01-13 04:25:00,
2013-01-12 22:35:00,17.8,7.3,30.04,NNW,335,0.0,0.0,63,0.00,,,0.00,Wunderground v.1.15,2013-01-13 04:35:00,
2013-01-12 22:45:00,17.5,7.0,30.04,NW,323,0.0,0.0,63,0.00,,,0.00,Wunderground v.1.15,2013-01-13 04:45:00,
2013-01-12 22:55:00,17.3,7.2,30.02,NW,311,0.0,0.0,64,0.00,,,0.00,Wunderground v.1.15,2013-01-13 04:55:00,
2013-01-12 23:00:00,17.2,7.1,30.02,NNW,333,0.0,0.0,64,0.00,,,0.00,Wunderground v.1.15,2013-01-13 05:00:00,
2013-01-12 23:10:00,17.0,7.3,30.04,NNW,342,0.0,0.0,65,0.00,,,0.00,Wunderground v.1.15,2013-01-13 05:10:00,
2013-01-12 23:15:00,16.9,7.2,30.04,NW,306,0.0,0.0,65,0.00,,,0.00,Wunderground v.1.15,2013-01-13 05:15:00,
2013-01-12 23:25:00,16.7,7.0,30.05,NW,318,0.0,0.0,65,0.00,,,0.00,Wunderground v.1.15,2013-01-13 05:25:00,
2013-01-12 23:30:00,16.5,6.8,30.05,NW,319,0.0,0.0,65,0.00,,,0.00,Wunderground v.1.15,2013-01-13 05:30:00,
2013-01-12 23:40:00,16.4,6.7,30.05,NW,309,0.0,0.0,65,0.00,,,0.00,Wunderground v.1.15,2013-01-13 05:40:00,
2013-01-12 23:45:00,16.2,6.5,30.05,NNW,329,0.0,0.0,65,0.00,,,0.00,Wunderground v.1.15,2013-01-13 05:45:00,
2013-01-12 23:55:00,16.1,6.4,30.06,NW,306,0.0,0.0,65,0.00,,,0.00,Wunderground v.1.15,2013-01-13 05:55:00,